Richardton, North Dakota
Current Conditions -  °F | °C
As of 7:35 PM on Wednesday 22 Oct 2014 (Local Time) from KD57 Reporting Station
Clear Clear  
Wind Chill: 44°   Ceiling: Unl
Heat Index: 46°   Visibility: 10mi
Dew Point: 34°   Wind: 6mph
Humidity: 62%   Direction: 300°WNW
Pressure: 29.9"   Gusts: NA
Location:  46.88°N, 102.32°W
Report Text: KD57 230135Z AUTO 30005KT 10SM CLR 08/01 A2990 RMK AO2 TSNO
Loading
Personal Weather Stations






























Interactive Weather Map New forecast layout! Learn more

10-Day Weather Forecast

Advertisements
Track Severe Weather on mobile